SCAT B735 at Kostanay on Jun 3rd 2018, runway excursion on backtrack

Last Update: June 4, 2018 / 22:31:44 GMT/Zulu time

Bookmark this article
Incident Facts

Date of incident
Jun 3, 2018

Classification
Incident

Flight number
DV-729

Aircraft Registration
LY-AWD

Aircraft Type
Boeing 737-500

ICAO Type Designator
B735

Airport ICAO Code
UAUU

A SCAT Airlines Boeing 737-500, registration LY-AWD performing flight DV-729 from Almaty to Kostanay (Kazakhstan) with 80 people on board, landed on Kostanay's runway 33 and slowed safely but missed the last available exit taxiway 3 (taxiway 4 at the end of the runway is currently closed). While attempting to turn around to backtrack the runway to taxiway 3 the aircraft went off the runway and became stuck with nose gear and left main gear on soft ground. The passengers disembarked onto the runway via the right hand forward door and mobile stairs and were bussed to the terminal.

The occurrence aircraft is still on the ground in Kostanay about 36 hours after landing.

Related NOTAMs:
K3289/18 NOTAMN
Q) UACC/QMRLC/IV/NBO/A /000/999/5312N06333E005
A) UAUU B) 1806031151 C) 1806031300
E) RWY 15/33 CLSD.
GRASS RWY 15/33 AVBL 5KG PER SQUARE CENTIMETER.

K3287/18 NOTAMN
Q) UACC/QFALC/IV/NBO/A /000/999/5312N06333E005
A) UAUU B) 1806031126 C) 1806031300
E) AD CLSD DUE TO TECHNICAL REASON.

K2389/18 NOTAMN
Q) UACC/QMXLC/IV/M /A /000/999/5312N06333E005
A) UAUU B) 1804290200 C) 1807290200 EST
E) TWY4 CLSD 20M FROM RWY 15/33 TO TWY5.

Metars:
UAUU 031200Z 29007MPS 9999 -SHRA OVC043CB 08/06 Q1001 R33/290054 TEMPO 30018MPS RMK QFE735/0980=
UAUU 031130Z 27014MPS 9999 BKN036CB 15/06 Q1000 R33/CLRD70 TEMPO 26018MPS RMK QFE734/0979=
UAUU 031100Z 27013G18MPS 9999 BKN033CB 13/07 Q0999 R33/290054 TEMPO 26018MPS RMK QFE734/0979=
UAUU 031030Z 26012MPS 9999 BKN036CB 14/08 Q0999 R33/290054 TEMPO 26018MPS RMK QFE734/0978=
UAUU 031000Z 26011MPS 9999 BKN050CB 12/09 Q0998 R33/290054 TEMPO 26018MPS RMK QFE733/0978=
UAUU 030930Z 25015MPS 9000 -SHRA OVC020CB 11/09 Q0999 R15/290054 TEMPO 23020MPS 3000 -TSRA BKN015CB RMK QFE733/0978=
UAUU 030900Z 22012MPS 9999 OVC028CB 13/08 Q0998 R15/290054 TEMPO 23018MPS RMK QFE732/0977=
UAUU 030830Z 23011G17MPS 9999 OVC040CB 12/07 Q0999 R15/290054 TEMPO 23018MPS RMK QFE733/0977=
UAUU 030800Z 24011MPS 9999 OVC023CB 13/08 Q0999 R15/290054 TEMPO 23018MPS RMK QFE733/0978=
UAUU 030730Z 24012MPS 9999 OVC023CB 12/08 Q0999 R15/290054 TEMPO 23018MPS RMK QFE733/0978=
UAUU 030700Z 24011G16MPS 9999 OVC020CB 11/08 Q0999 R15/290054 TEMPO 23018MPS RMK QFE733/0978=
Incident Facts

Date of incident
Jun 3, 2018

Classification
Incident

Flight number
DV-729

Aircraft Registration
LY-AWD

Aircraft Type
Boeing 737-500

ICAO Type Designator
B735

Airport ICAO Code
UAUU

This article is published under license from Avherald.com. © of text by Avherald.com.
Article source

You can read 2 more free articles without a subscription.

Subscribe now and continue reading without any limits!

Are you a subscriber? Login
Subscribe

Read unlimited articles and receive our daily update briefing. Gain better insights into what is happening in commercial aviation safety.

Free newsletter

Want to know more and stay ahead? Get our free weekly newsletter and join 5465 existing subscribers.

By subscribing, you accept our terms and conditions and confirm that you've read our privacy policy.

Send tip

Support AeroInside by sending a small tip amount.

Related articles

Newest articles

Subscribe today

Are you researching aviation incidents? Get access to AeroInside Insights, unlimited read access and receive the daily newsletter.

Pick your plan and subscribe

Partner

Blockaviation logo

A new way to document and demonstrate airworthiness compliance and aircraft value. Find out more.

Virtual Speech logo

ELITE Simulation Solutions is a leading global provider of Flight Simulation Training Devices, IFR training software as well as flight controls and related services. Find out more.

Get updates

Never miss an article from AeroInside. Subscribe to our free weekly newsletter and join 5465 existing subscribers.

By subscribing, you accept our terms and conditions and that you've read our privacy policy.

AeroInside Blog
Popular aircraft
Airbus A320
Boeing 737-800
Boeing 737-800 MAX
Popular airlines
American Airlines
United
Delta
Air Canada
Lufthansa
British Airways